Time;durP1;ratioP1;P1;durP2;ratioP2;P2;SDS_P1;SDS_P2;PMS_P1;PMS_P2;Temp;Humidity;BMP_temperature;BMP_pressure;BME280_temperature;BME280_humidity;BME280_pressure;Samples;Min_cycle;Max_cycle;Signal;HPM_P1;HPM_P2
2023/05/17 00:00:24;;;;;;;6.60;1.90;;;;;;;8.35;80.07;102380.91;5031899;28;20080;-77
2023/05/17 00:02:50;;;;;;;5.97;2.13;;;;;;;8.35;80.28;102374.84;5033511;28;20033;-77
2023/05/17 00:05:15;;;;;;;6.90;2.30;;;;;;;8.34;80.23;102373.97;5032135;28;20576;-77
2023/05/17 00:07:40;;;;;;;6.22;2.00;;;;;;;8.32;80.50;102380.88;5032656;28;20092;-77
2023/05/17 00:10:06;;;;;;;9.20;2.95;;;;;;;8.32;80.47;102386.06;5032423;28;20023;-77
2023/05/17 00:12:31;;;;;;;5.45;1.85;;;;;;;8.29;80.90;102374.78;5033404;28;20029;-77
2023/05/17 00:14:57;;;;;;;6.40;2.33;;;;;;;8.25;80.78;102379.06;5032721;28;20481;-77
2023/05/17 00:17:22;;;;;;;9.07;2.05;;;;;;;8.22;80.85;102384.22;5031930;28;20059;-77
2023/05/17 00:19:48;;;;;;;6.82;2.13;;;;;;;8.19;81.24;102379.88;5031837;28;20034;-77
2023/05/17 00:22:13;;;;;;;6.22;1.95;;;;;;;8.17;81.22;102379.00;5031856;28;20032;-77
2023/05/17 00:24:38;;;;;;;9.23;2.53;;;;;;;8.16;81.12;102381.59;5030877;28;20101;-77
2023/05/17 00:27:04;;;;;;;9.43;2.38;;;;;;;8.14;81.21;102385.88;5030394;28;20037;-77
2023/05/17 00:29:29;;;;;;;5.55;1.95;;;;;;;8.12;81.75;102380.66;5033348;28;20022;-77
2023/05/17 00:31:55;;;;;;;6.13;2.17;;;;;;;8.11;82.07;102383.25;5033357;28;20131;-77
2023/05/17 00:34:20;;;;;;;6.95;2.20;;;;;;;8.07;82.06;102378.91;5033065;28;20034;-77
2023/05/17 00:36:45;;;;;;;4.20;2.17;;;;;;;8.05;82.09;102377.16;5032292;28;20043;-77
2023/05/17 00:39:10;;;;;;;7.53;2.05;;;;;;;8.06;82.13;102383.22;5033906;28;20479;-77
2023/05/17 00:41:36;;;;;;;5.68;2.28;;;;;;;8.02;82.52;102382.34;5033349;28;20029;-81
2023/05/17 00:44:01;;;;;;;7.28;2.33;;;;;;;8.02;82.72;102381.44;5033117;28;20025;-77
2023/05/17 00:46:26;;;;;;;5.82;2.20;;;;;;;8.02;82.93;102376.28;5031663;28;20433;-76
2023/05/17 00:48:52;;;;;;;8.95;2.30;;;;;;;8.01;82.99;102387.50;5032963;28;20084;-77
2023/05/17 00:51:18;;;;;;;7.40;2.47;;;;;;;8.01;83.01;102375.41;5032899;28;20052;-76
2023/05/17 00:53:43;;;;;;;9.18;2.65;;;;;;;8.02;82.89;102376.28;5031714;28;20485;-77
2023/05/17 00:56:09;;;;;;;5.80;2.20;;;;;;;7.99;83.43;102374.53;5033244;28;20104;-77
2023/05/17 00:58:35;;;;;;;8.30;2.58;;;;;;;7.99;83.43;102377.13;5031444;28;20029;-77
2023/05/17 01:01:02;;;;;;;5.25;2.35;;;;;;;7.97;83.47;102377.94;5032476;28;20040;-77
2023/05/17 01:03:27;;;;;;;8.13;2.40;;;;;;;7.97;83.75;102375.34;5030789;28;20064;-77
2023/05/17 01:05:52;;;;;;;7.03;2.53;;;;;;;7.96;83.55;102371.00;5030139;28;20065;-77
2023/05/17 01:08:17;;;;;;;6.28;2.63;;;;;;;7.94;83.58;102375.34;5029662;28;20033;-77
2023/05/17 01:10:57;;;;;;;6.82;2.58;;;;;;;7.92;83.45;102367.53;5031844;28;20045;-77
2023/05/17 01:13:46;;;;;;;9.05;2.55;;;;;;;7.90;83.13;102375.31;5031190;28;20040;-77
2023/05/17 01:16:24;;;;;;;5.43;2.22;;;;;;;7.88;83.62;102370.94;5030942;28;20053;-76
2023/05/17 01:19:01;;;;;;;8.93;2.50;;;;;;;7.85;83.56;102376.13;5029568;28;20475;-76
2023/05/17 01:21:45;;;;;;;7.00;2.80;;;;;;;7.81;83.67;102376.94;5028605;28;20029;-76
2023/05/17 01:24:27;;;;;;;6.45;2.47;;;;;;;7.80;83.55;102380.38;5030668;28;20033;-76
2023/05/17 01:26:53;;;;;;;6.10;2.35;;;;;;;7.78;84.61;102382.06;5026008;28;20021;-76
2023/05/17 01:29:24;;;;;;;6.45;2.17;;;;;;;7.77;84.29;102381.19;5030256;28;20061;-77
2023/05/17 01:31:50;;;;;;;12.60;2.65;;;;;;;7.77;84.29;102375.16;5030661;28;20515;-76
2023/05/17 01:34:24;;;;;;;7.60;2.80;;;;;;;7.77;84.51;102380.34;5029582;28;20155;-77
2023/05/17 01:36:49;;;;;;;7.57;2.38;;;;;;;7.74;84.93;102376.84;5031165;28;20029;-77
2023/05/17 01:39:15;;;;;;;6.60;2.35;;;;;;;7.75;85.03;102372.56;5028739;28;20491;-77
2023/05/17 01:41:43;;;;;;;6.22;2.50;;;;;;;7.75;85.16;102377.75;5032001;28;20059;-77
2023/05/17 01:44:25;;;;;;;7.70;2.60;;;;;;;7.75;85.26;102376.00;5030017;28;20036;-77
2023/05/17 01:47:05;;;;;;;7.35;2.50;;;;;;;7.74;85.03;102379.44;5030599;28;20476;-77
2023/05/17 01:49:34;;;;;;;9.20;2.80;;;;;;;7.71;85.12;102370.78;5029078;28;20384;-77
2023/05/17 01:52:05;;;;;;;5.88;2.65;;;;;;;7.69;85.76;102373.34;5029755;28;20041;-76
2023/05/17 01:54:35;;;;;;;7.97;2.50;;;;;;;7.68;85.37;102369.03;5029702;28;20055;-77
2023/05/17 01:57:04;;;;;;;8.75;2.65;;;;;;;7.65;85.42;102366.41;5029644;28;20029;-76
2023/05/17 01:59:32;;;;;;;9.43;3.00;;;;;;;7.67;85.75;102371.59;5030955;28;20029;-77
2023/05/17 02:02:06;;;;;;;9.27;3.13;;;;;;;7.67;85.87;102375.06;5025597;28;20025;-77
2023/05/17 02:04:31;;;;;;;6.57;2.70;;;;;;;7.67;85.93;102379.34;5027548;28;20164;-76
2023/05/17 02:06:56;;;;;;;5.47;2.40;;;;;;;7.65;85.53;102381.94;5029709;28;20155;-77
2023/05/17 02:09:22;;;;;;;9.55;3.00;;;;;;;7.65;85.64;102371.59;5028964;28;20104;-77
2023/05/17 02:11:47;;;;;;;8.20;2.92;;;;;;;7.64;85.93;102377.63;5029425;28;20036;-77
2023/05/17 02:14:12;;;;;;;9.00;2.80;;;;;;;7.63;86.25;102372.41;5029080;28;20038;-77
2023/05/17 02:16:38;;;;;;;8.65;3.28;;;;;;;7.62;86.15;102366.38;5030532;28;20125;-77
2023/05/17 02:19:03;;;;;;;9.82;3.05;;;;;;;7.64;85.86;102369.84;5027240;28;20029;-77
2023/05/17 02:21:28;;;;;;;9.88;2.90;;;;;;;7.63;86.51;102368.09;5030782;28;20048;-76
2023/05/17 02:23:53;;;;;;;7.32;3.38;;;;;;;7.63;86.55;102368.09;5030014;28;20061;-77
2023/05/17 02:26:18;;;;;;;9.05;2.90;;;;;;;7.65;86.31;102370.69;5030026;28;20580;-77
2023/05/17 02:28:44;;;;;;;8.07;3.10;;;;;;;7.64;86.57;102375.03;5029847;28;20022;-77
2023/05/17 02:31:09;;;;;;;10.63;3.28;;;;;;;7.67;86.96;102380.25;5030635;28;20033;-77
2023/05/17 02:33:35;;;;;;;7.93;2.75;;;;;;;7.68;86.69;102381.97;5030993;28;20032;-77
2023/05/17 02:36:00;;;;;;;8.80;2.85;;;;;;;7.71;86.75;102379.41;5031317;28;20514;-77
2023/05/17 02:38:25;;;;;;;6.70;2.97;;;;;;;7.74;87.07;102376.84;5031472;28;20029;-77
2023/05/17 02:40:50;;;;;;;8.82;2.72;;;;;;;7.78;87.23;102382.06;5030722;28;20036;-77
2023/05/17 02:43:16;;;;;;;8.00;2.75;;;;;;;7.81;87.09;102387.28;5030555;28;20083;-77
2023/05/17 02:45:42;;;;;;;5.82;2.78;;;;;;;7.82;87.28;102395.06;5030463;28;20033;-76
2023/05/17 02:48:08;;;;;;;9.68;3.28;;;;;;;7.83;86.94;102383.84;5030971;28;20044;-76
2023/05/17 02:50:33;;;;;;;7.90;3.20;;;;;;;7.85;87.38;102392.50;5033802;28;20396;-76
2023/05/17 02:52:58;;;;;;;8.75;3.40;;;;;;;7.87;87.50;102396.00;5035227;28;20021;-77
2023/05/17 02:55:24;;;;;;;10.05;3.30;;;;;;;7.89;87.23;102390.81;5036002;28;20029;-77
2023/05/17 02:57:49;;;;;;;9.15;3.42;;;;;;;7.94;87.68;102391.75;5034630;28;20072;-77
2023/05/17 03:00:15;;;;;;;9.10;3.35;;;;;;;7.96;87.18;102392.63;5033029;28;20116;-77
2023/05/17 03:02:40;;;;;;;8.68;3.15;;;;;;;7.98;87.60;102398.72;5034259;28;20029;-77
2023/05/17 03:05:07;;;;;;;6.65;3.10;;;;;;;8.01;87.48;102400.44;5033280;28;20051;-76
2023/05/17 03:07:32;;;;;;;13.65;3.47;;;;;;;8.04;87.32;102405.66;5034214;28;20033;-77
2023/05/17 03:09:57;;;;;;;9.60;3.42;;;;;;;8.06;87.46;102403.97;5032756;28;20025;-76
2023/05/17 03:12:23;;;;;;;8.70;3.60;;;;;;;8.07;87.45;102404.81;5034169;28;20021;-77
2023/05/17 03:14:48;;;;;;;10.48;3.65;;;;;;;8.10;87.39;102407.44;5032936;28;20040;-76
2023/05/17 03:17:13;;;;;;;9.63;3.08;;;;;;;8.12;87.57;102403.16;5034123;28;20026;-77
2023/05/17 03:19:38;;;;;;;14.02;3.75;;;;;;;8.13;87.70;102405.75;5032432;28;20039;-77
2023/05/17 03:22:04;;;;;;;11.77;3.95;;;;;;;8.15;87.17;102403.19;5031768;28;21880;-77
2023/05/17 03:24:29;;;;;;;11.10;3.25;;;;;;;8.17;87.52;102422.22;5034244;28;20040;-77
2023/05/17 03:26:54;;;;;;;10.10;3.70;;;;;;;8.16;87.76;102416.16;5031718;28;20057;-77
2023/05/17 03:29:19;;;;;;;11.80;4.30;;;;;;;8.18;87.64;102413.59;5032969;28;20052;-77
2023/05/17 03:31:45;;;;;;;12.25;3.25;;;;;;;8.21;87.55;102418.78;5033337;28;20025;-77
2023/05/17 03:34:10;;;;;;;8.77;3.75;;;;;;;8.21;87.47;102426.56;5033990;28;20377;-77
2023/05/17 03:36:38;;;;;;;7.47;3.80;;;;;;;8.21;87.85;102431.75;5032410;28;20502;-77
2023/05/17 03:39:03;;;;;;;8.27;3.42;;;;;;;8.21;87.69;102423.97;5031947;28;20025;-77
2023/05/17 03:41:29;;;;;;;9.77;3.50;;;;;;;8.22;87.70;102430.03;5031883;28;20041;-77
2023/05/17 03:43:54;;;;;;;9.32;3.42;;;;;;;8.23;87.76;102431.78;5032347;28;20025;-77
2023/05/17 03:46:20;;;;;;;10.98;4.00;;;;;;;8.22;87.84;102430.03;5032412;28;20486;-77
2023/05/17 03:48:45;;;;;;;9.40;3.45;;;;;;;8.22;87.74;102436.06;5032018;28;20036;-77
2023/05/17 03:51:10;;;;;;;8.50;4.00;;;;;;;8.22;87.63;102441.25;5033529;28;20514;-77
2023/05/17 03:53:42;;;;;;;9.80;3.10;;;;;;;8.20;87.39;102433.47;5034097;28;20037;-77
2023/05/17 03:56:07;;;;;;;8.60;3.10;;;;;;;8.18;87.30;102440.38;5030828;28;20039;-76
2023/05/17 03:58:33;;;;;;;8.70;3.78;;;;;;;8.17;87.06;102437.78;5030996;28;20021;-76
2023/05/17 04:00:58;;;;;;;9.85;3.78;;;;;;;8.15;87.35;102450.69;5030650;28;20049;-77
2023/05/17 04:03:23;;;;;;;10.40;3.72;;;;;;;8.16;87.19;102457.63;5032133;28;20018;-77
2023/05/17 04:05:49;;;;;;;8.82;3.17;;;;;;;8.15;87.22;102449.84;5031042;28;20366;-77
2023/05/17 04:08:14;;;;;;;9.52;3.60;;;;;;;8.16;87.62;102451.59;5031763;28;20051;-76
2023/05/17 04:10:41;;;;;;;9.77;3.55;;;;;;;8.16;86.95;102447.25;5033033;28;20019;-77
2023/05/17 04:13:09;;;;;;;12.18;3.97;;;;;;;8.14;87.32;102445.50;5030474;28;20037;-77
2023/05/17 04:15:35;;;;;;;10.45;3.67;;;;;;;8.15;87.05;102449.84;5031209;28;20128;-77
2023/05/17 04:18:01;;;;;;;9.02;3.47;;;;;;;8.13;87.09;102446.38;5032434;28;20090;-76
2023/05/17 04:20:26;;;;;;;11.38;3.70;;;;;;;8.15;87.35;102457.63;5032265;28;20392;-77
2023/05/17 04:22:51;;;;;;;8.13;3.20;;;;;;;8.13;87.16;102457.59;5030922;28;20395;-77
2023/05/17 04:25:17;;;;;;;10.25;3.63;;;;;;;8.15;87.12;102460.22;5032546;28;20021;-77
2023/05/17 04:27:43;;;;;;;6.78;3.38;;;;;;;8.15;87.19;102465.41;5031244;28;20024;-76
2023/05/17 04:30:09;;;;;;;7.38;3.00;;;;;;;8.17;87.12;102463.69;5032995;28;20021;-77
2023/05/17 04:32:35;;;;;;;10.30;3.67;;;;;;;8.17;86.87;102466.28;5033397;28;20104;-76
2023/05/17 04:35:00;;;;;;;7.50;3.60;;;;;;;8.17;86.93;102471.47;5033562;28;20033;-77
2023/05/17 04:37:25;;;;;;;8.45;3.63;;;;;;;8.18;87.00;102473.22;5035194;28;20024;-76
2023/05/17 04:39:52;;;;;;;8.13;3.78;;;;;;;8.19;87.11;102480.16;5030678;28;20081;-76
2023/05/17 04:42:17;;;;;;;8.50;3.72;;;;;;;8.20;87.10;102479.25;5032130;28;20032;-76
2023/05/17 04:44:42;;;;;;;9.50;3.80;;;;;;;8.20;87.12;102480.16;5033250;28;20021;-76
2023/05/17 04:47:08;;;;;;;8.18;3.78;;;;;;;8.21;87.10;102486.19;5032395;28;20056;-77
2023/05/17 04:49:33;;;;;;;9.80;3.45;;;;;;;8.22;87.26;102487.94;5032446;28;20112;-76
2023/05/17 04:51:58;;;;;;;10.52;3.58;;;;;;;8.22;87.54;102490.53;5032899;28;20064;-76
2023/05/17 04:54:24;;;;;;;9.75;3.30;;;;;;;8.23;87.51;102494.00;5034383;28;20400;-76
2023/05/17 04:56:50;;;;;;;9.80;3.83;;;;;;;8.23;87.43;102494.84;5032010;28;20098;-76
2023/05/17 04:59:15;;;;;;;9.10;4.05;;;;;;;8.23;87.72;102504.38;5031769;28;20468;-76
2023/05/17 05:01:40;;;;;;;10.98;3.72;;;;;;;8.22;87.67;102500.88;5026350;28;20044;-77
2023/05/17 05:04:06;;;;;;;11.02;3.50;;;;;;;8.23;87.46;102500.03;5030652;28;20100;-77
2023/05/17 05:06:33;;;;;;;10.63;3.97;;;;;;;8.24;87.94;102501.78;5031289;28;20029;-77
2023/05/17 05:09:00;;;;;;;7.97;3.25;;;;;;;8.25;88.25;102503.53;5030775;28;20053;-77
2023/05/17 05:11:25;;;;;;;5.65;3.08;;;;;;;8.27;88.25;102512.19;5029868;28;20026;-78
2023/05/17 05:13:50;;;;;;;9.07;3.50;;;;;;;8.28;88.39;102519.13;5031808;28;20039;-77
2023/05/17 05:16:16;;;;;;;8.77;3.58;;;;;;;8.28;88.56;102519.13;5029849;28;20025;-77
2023/05/17 05:18:41;;;;;;;8.57;3.28;;;;;;;8.29;88.67;102518.28;5028621;28;20029;-77
2023/05/17 05:21:06;;;;;;;12.13;3.83;;;;;;;8.32;88.76;102515.72;5032143;28;20025;-77
2023/05/17 05:23:31;;;;;;;8.52;3.30;;;;;;;8.35;88.97;102515.75;5031190;28;20033;-77
2023/05/17 05:25:57;;;;;;;8.07;3.78;;;;;;;8.40;88.90;102525.28;5031178;28;20052;-77
2023/05/17 05:28:22;;;;;;;10.63;3.70;;;;;;;8.42;89.01;102526.16;5031622;28;20040;-77
2023/05/17 05:30:47;;;;;;;8.95;3.50;;;;;;;8.46;89.45;102534.00;5030750;28;20041;-77
2023/05/17 05:33:12;;;;;;;8.85;3.92;;;;;;;8.54;89.22;102541.88;5024897;28;20041;-77
2023/05/17 05:35:38;;;;;;;10.50;3.55;;;;;;;8.58;89.46;102542.81;5029455;28;20115;-77
2023/05/17 05:38:03;;;;;;;11.23;3.40;;;;;;;8.63;89.03;102542.00;5028442;28;20037;-77
2023/05/17 05:40:28;;;;;;;10.95;4.25;;;;;;;8.68;89.33;102541.19;5028049;28;20036;-77
2023/05/17 05:42:54;;;;;;;10.82;4.07;;;;;;;8.72;89.12;102546.41;5028864;28;20040;-77
2023/05/17 05:45:20;;;;;;;9.50;3.53;;;;;;;8.75;89.24;102545.56;5030031;28;20036;-77
2023/05/17 05:47:45;;;;;;;8.63;3.67;;;;;;;8.80;88.63;102543.88;5028707;28;20445;-77
2023/05/17 05:50:11;;;;;;;13.05;4.35;;;;;;;8.83;88.62;102546.50;5026107;28;20112;-77
2023/05/17 05:52:36;;;;;;;11.20;3.58;;;;;;;8.87;88.71;102556.06;5029789;28;20057;-77
2023/05/17 05:55:01;;;;;;;12.23;4.10;;;;;;;8.92;88.72;102559.56;5031569;28;20361;-77
2023/05/17 05:57:27;;;;;;;10.70;3.60;;;;;;;8.99;88.57;102559.63;5029724;28;20030;-77
2023/05/17 05:59:52;;;;;;;10.90;3.80;;;;;;;9.05;88.18;102559.69;5030460;28;20082;-77
2023/05/17 06:02:18;;;;;;;10.10;3.70;;;;;;;9.10;87.89;102555.38;5029987;28;20037;-77
2023/05/17 06:04:45;;;;;;;9.35;3.40;;;;;;;9.13;86.38;102562.34;5029027;28;20029;-77
2023/05/17 06:07:11;;;;;;;7.28;3.25;;;;;;;9.15;87.67;102561.47;5029899;28;20035;-77
2023/05/17 06:09:36;;;;;;;12.82;3.50;;;;;;;9.20;86.72;102559.81;5031091;28;20025;-77
2023/05/17 06:12:01;;;;;;;11.43;3.30;;;;;;;9.32;87.89;102568.53;5028571;28;20460;-77
2023/05/17 06:14:26;;;;;;;11.38;3.67;;;;;;;9.39;87.41;102576.38;5029811;28;20029;-77
2023/05/17 06:16:52;;;;;;;9.13;3.10;;;;;;;9.45;87.60;102579.91;5026359;28;20036;-77
2023/05/17 06:19:18;;;;;;;8.77;2.80;;;;;;;9.53;86.47;102586.88;5022761;28;20072;-77
2023/05/17 06:21:44;;;;;;;14.57;3.53;;;;;;;9.61;86.57;102591.25;5028222;28;20257;-77
2023/05/17 06:24:09;;;;;;;10.48;2.92;;;;;;;9.66;83.66;102592.16;5028935;28;20547;-77
2023/05/17 06:26:34;;;;;;;8.73;2.50;;;;;;;9.72;82.81;102602.59;5028597;28;20025;-77
2023/05/17 06:29:00;;;;;;;8.48;2.70;;;;;;;9.74;81.75;102594.78;5027546;28;20354;-77
2023/05/17 06:31:25;;;;;;;10.10;2.35;;;;;;;9.74;82.19;102603.44;5028505;28;20025;-77
2023/05/17 06:33:50;;;;;;;11.63;2.45;;;;;;;9.75;79.76;102599.13;5027169;28;20037;-80
2023/05/17 06:36:15;;;;;;;9.48;2.85;;;;;;;9.76;81.98;102593.94;5027590;28;20108;-77
2023/05/17 06:38:41;;;;;;;12.65;2.67;;;;;;;9.84;81.84;102597.47;5026839;28;20041;-78
2023/05/17 06:41:06;;;;;;;7.22;2.05;;;;;;;9.91;76.47;102605.28;5025336;28;20469;-78
2023/05/17 06:43:31;;;;;;;8.43;1.95;;;;;;;9.86;76.21;102607.84;5026285;28;20503;-77
2023/05/17 06:45:57;;;;;;;8.82;1.67;;;;;;;9.87;77.70;102605.28;5024925;28;20045;-77
2023/05/17 06:48:23;;;;;;;6.88;1.65;;;;;;;9.87;76.62;102597.47;5029654;28;20033;-77
2023/05/17 06:50:48;;;;;;;9.02;1.77;;;;;;;9.92;77.00;102610.50;5026901;28;20061;-78
2023/05/17 06:53:13;;;;;;;7.50;1.85;;;;;;;9.97;77.89;102600.13;5026418;28;20056;-77
2023/05/17 06:55:39;;;;;;;8.05;1.88;;;;;;;10.06;75.73;102604.50;5030048;28;20040;-77
2023/05/17 06:58:04;;;;;;;9.77;2.08;;;;;;;10.15;75.45;102604.56;5030018;28;20120;-77
2023/05/17 07:00:30;;;;;;;8.57;1.60;;;;;;;10.19;71.49;102603.69;5029667;28;20071;-77
2023/05/17 07:02:55;;;;;;;7.32;1.90;;;;;;;10.22;72.00;102616.72;5029344;28;20033;-77
2023/05/17 07:05:22;;;;;;;8.80;2.08;;;;;;;10.26;71.90;102609.78;5027355;28;20037;-77
2023/05/17 07:07:48;;;;;;;8.77;1.90;;;;;;;10.35;73.53;102612.44;5023458;28;20492;-77
2023/05/17 07:10:13;;;;;;;8.50;1.92;;;;;;;10.42;72.28;102614.22;5029407;28;20026;-77
2023/05/17 07:12:38;;;;;;;10.18;1.70;;;;;;;10.51;73.63;102613.38;5029852;28;20064;-77
2023/05/17 07:15:04;;;;;;;6.85;1.40;;;;;;;10.58;70.49;102624.69;5031093;28;20044;-77
2023/05/17 07:17:29;;;;;;;7.15;1.52;;;;;;;10.61;68.16;102616.88;5031091;28;20029;-77
2023/05/17 07:19:55;;;;;;;6.13;1.60;;;;;;;10.59;69.79;102624.69;5030424;28;20030;-77
2023/05/17 07:22:20;;;;;;;7.63;1.70;;;;;;;10.59;70.94;102621.22;5031091;28;20536;-77
2023/05/17 07:24:45;;;;;;;8.68;2.08;;;;;;;10.65;69.53;102621.22;5030868;28;20033;-77
2023/05/17 07:27:11;;;;;;;7.97;1.40;;;;;;;10.71;70.32;102628.19;5031177;28;20044;-77
2023/05/17 07:29:36;;;;;;;7.65;1.63;;;;;;;10.73;68.51;102632.53;5031042;28;20103;-77
2023/05/17 07:32:02;;;;;;;7.38;1.55;;;;;;;10.74;69.70;102636.00;5031068;28;20469;-77
2023/05/17 07:34:29;;;;;;;6.72;1.55;;;;;;;10.74;69.98;102638.59;5027846;28;20120;-77
2023/05/17 07:36:54;;;;;;;7.70;1.42;;;;;;;10.76;69.34;102635.13;5032054;28;20021;-77
2023/05/17 07:39:19;;;;;;;5.53;1.17;;;;;;;10.82;68.33;102649.03;5031555;28;20477;-76
2023/05/17 07:41:45;;;;;;;7.18;1.40;;;;;;;10.82;67.41;102647.31;5033520;28;20032;-77
2023/05/17 07:44:10;;;;;;;8.10;1.80;;;;;;;10.83;69.14;102646.44;5033166;28;20044;-77
2023/05/17 07:46:35;;;;;;;6.80;1.40;;;;;;;10.79;67.44;102642.09;5034328;28;20032;-77
2023/05/17 07:49:00;;;;;;;9.20;1.40;;;;;;;10.75;68.82;102643.84;5034408;28;20562;-76
2023/05/17 07:51:26;;;;;;;6.85;1.65;;;;;;;10.75;67.79;102648.16;5034163;28;20046;-77
2023/05/17 07:53:51;;;;;;;10.85;1.67;;;;;;;10.72;65.60;102648.13;5033013;28;20033;-77
2023/05/17 07:56:16;;;;;;;6.55;1.48;;;;;;;10.72;66.38;102654.22;5034126;28;20105;-77
2023/05/17 07:58:42;;;;;;;7.35;1.70;;;;;;;10.71;66.57;102656.81;5034054;28;20366;-77
2023/05/17 08:01:08;;;;;;;8.65;1.60;;;;;;;10.69;65.12;102654.22;5034230;28;20053;-77
2023/05/17 08:03:34;;;;;;;5.82;1.40;;;;;;;10.68;63.71;102662.00;5034073;28;20083;-77
2023/05/17 08:05:59;;;;;;;8.20;1.50;;;;;;;10.63;65.06;102654.19;5031782;28;20025;-77
2023/05/17 08:08:25;;;;;;;7.68;1.42;;;;;;;10.62;65.46;102657.66;5032114;28;20083;-77
2023/05/17 08:10:50;;;;;;;7.20;1.58;;;;;;;10.65;64.86;102665.47;5032524;28;20053;-77
2023/05/17 08:13:15;;;;;;;4.78;1.17;;;;;;;10.69;64.05;102667.22;5033811;28;20021;-77
2023/05/17 08:15:41;;;;;;;7.22;1.30;;;;;;;10.73;65.16;102666.38;5033993;28;20021;-77
2023/05/17 08:18:06;;;;;;;6.55;1.30;;;;;;;10.83;62.55;102655.97;5032285;28;20033;-77
2023/05/17 08:20:31;;;;;;;6.45;1.45;;;;;;;10.87;64.76;102652.53;5032545;28;20061;-77
2023/05/17 08:22:56;;;;;;;6.53;1.20;;;;;;;10.87;61.97;102657.75;5032746;28;20124;-77
2023/05/17 08:25:22;;;;;;;5.32;1.20;;;;;;;10.90;63.99;102662.97;5032587;28;20108;-77
2023/05/17 08:27:47;;;;;;;6.05;1.30;;;;;;;10.92;65.26;102656.03;5029664;28;20029;-77
2023/05/17 08:30:13;;;;;;;8.68;1.70;;;;;;;10.97;62.76;102654.28;5030029;28;20017;-77
2023/05/17 08:32:38;;;;;;;6.80;1.30;;;;;;;11.01;63.29;102660.38;5028884;28;20017;-77
2023/05/17 08:35:04;;;;;;;5.43;1.20;;;;;;;11.04;65.57;102661.25;5026999;28;20030;-76
2023/05/17 08:37:29;;;;;;;5.88;1.20;;;;;;;11.03;62.82;102661.22;5027745;28;20034;-77
2023/05/17 08:39:55;;;;;;;6.82;1.30;;;;;;;11.01;64.69;102653.41;5029477;28;20022;-77
2023/05/17 08:42:24;;;;;;;5.20;1.20;;;;;;;11.05;64.18;102656.88;5031269;28;20025;-76
2023/05/17 08:44:50;;;;;;;5.82;1.25;;;;;;;11.06;61.05;102664.72;5031315;28;20084;-77
2023/05/17 08:47:24;;;;;;;6.35;1.40;;;;;;;11.16;64.33;102656.91;5032527;28;20130;-77
2023/05/17 08:49:54;;;;;;;8.20;1.52;;;;;;;11.33;63.84;102660.41;5029986;28;20017;-77
2023/05/17 08:52:21;;;;;;;6.38;1.30;;;;;;;11.54;64.77;102663.88;5032120;28;20053;-77
2023/05/17 08:54:47;;;;;;;6.15;1.20;;;;;;;11.71;65.81;102649.97;5029139;28;20392;-77
2023/05/17 08:57:13;;;;;;;7.00;1.20;;;;;;;11.87;64.65;102659.50;5029335;28;20488;-77
2023/05/17 08:59:40;;;;;;;7.25;1.40;;;;;;;11.98;62.82;102665.56;5025693;28;20022;-77
2023/05/17 09:02:07;;;;;;;4.97;1.20;;;;;;;12.05;61.57;102666.44;5029547;28;20042;-77
2023/05/17 09:04:32;;;;;;;5.82;1.10;;;;;;;12.05;56.14;102666.44;5029367;28;20043;-77
2023/05/17 09:06:58;;;;;;;6.10;1.13;;;;;;;12.10;59.10;102663.81;5028560;28;20029;-77
2023/05/17 09:09:24;;;;;;;7.57;1.00;;;;;;;12.23;61.62;102662.03;5028409;28;20033;-77
2023/05/17 09:11:50;;;;;;;6.93;1.08;;;;;;;12.35;60.92;102661.13;5029101;28;20048;-77
2023/05/17 09:14:16;;;;;;;5.28;1.10;;;;;;;12.43;58.90;102664.59;5027916;28;20025;-77
2023/05/17 09:16:42;;;;;;;4.75;1.00;;;;;;;12.48;56.22;102665.41;5027907;28;20087;-78
2023/05/17 09:19:14;;;;;;;4.93;1.05;;;;;;;12.51;56.67;102668.00;5028049;28;20424;-77
2023/05/17 09:21:44;;;;;;;8.75;1.60;;;;;;;12.52;58.10;102658.44;5024870;28;20029;-78
2023/05/17 09:24:09;;;;;;;3.53;1.13;;;;;;;12.55;56.60;102667.13;5026513;28;20021;-78
2023/05/17 09:26:40;;;;;;;2.55;0.73;;;;;;;12.62;57.82;102667.97;5028688;28;20400;-78
2023/05/17 09:29:11;;;;;;;4.95;0.80;;;;;;;12.70;58.43;102662.69;5027723;28;20045;-78
2023/05/17 09:31:38;;;;;;;4.30;0.93;;;;;;;12.77;58.84;102663.53;5028176;28;20100;-78
2023/05/17 09:34:05;;;;;;;5.25;1.15;;;;;;;12.83;57.62;102653.91;5025718;28;20029;-78
2023/05/17 09:36:31;;;;;;;5.25;1.17;;;;;;;12.89;56.86;102666.94;5026963;28;20045;-78
2023/05/17 09:39:03;;;;;;;5.15;1.00;;;;;;;12.95;56.05;102659.97;5024306;28;20079;-78
2023/05/17 09:41:48;;;;;;;5.95;1.10;;;;;;;13.00;57.24;102664.28;5023856;28;20107;-78
2023/05/17 09:44:14;;;;;;;6.63;1.20;;;;;;;13.03;55.91;102665.97;5027654;28;20021;-78
2023/05/17 09:46:47;;;;;;;4.85;1.42;;;;;;;13.09;56.76;102668.56;5026233;28;20608;-78
2023/05/17 09:49:13;;;;;;;6.43;1.20;;;;;;;13.09;53.10;102655.50;5028193;28;20017;-78
2023/05/17 09:51:41;;;;;;;5.53;1.10;;;;;;;13.08;55.00;102652.88;5029732;28;20050;-77
2023/05/17 09:54:07;;;;;;;2.97;0.82;;;;;;;13.07;55.56;102659.88;5028207;28;20029;-77
2023/05/17 09:56:34;;;;;;;4.35;0.93;;;;;;;13.11;56.09;102648.53;5029879;28;20083;-77
2023/05/17 09:59:09;;;;;;;3.78;1.20;;;;;;;13.18;56.83;102652.81;5027399;28;20029;-78
2023/05/17 10:01:39;;;;;;;5.65;1.00;;;;;;;13.24;54.20;102661.50;5023430;28;20053;-77
2023/05/17 10:04:07;;;;;;;6.38;1.15;;;;;;;13.24;51.79;102659.72;5026988;28;20033;-78
2023/05/17 10:06:36;;;;;;;3.95;0.80;;;;;;;13.26;54.45;102659.72;5027316;28;20117;-77
2023/05/17 10:09:02;;;;;;;4.88;1.10;;;;;;;13.24;51.75;102656.25;5027335;28;20460;-77
2023/05/17 10:11:33;;;;;;;2.92;0.85;;;;;;;13.27;52.82;102658.88;5026450;28;20035;-78
2023/05/17 10:14:14;;;;;;;5.55;1.48;;;;;;;13.26;53.28;102659.72;5023349;28;20550;-77
2023/05/17 10:16:40;;;;;;;5.72;1.20;;;;;;;13.20;54.04;102664.13;5026774;28;20025;-78
2023/05/17 10:19:06;;;;;;;4.15;1.00;;;;;;;13.13;52.59;102667.69;5023030;28;20049;-77
2023/05/17 10:21:32;;;;;;;4.35;0.98;;;;;;;13.09;53.51;102665.97;5026114;28;20083;-77
2023/05/17 10:24:00;;;;;;;4.80;1.20;;;;;;;13.10;53.49;102662.47;5026117;28;20029;-77
2023/05/17 10:26:26;;;;;;;6.43;1.25;;;;;;;13.07;53.27;102662.47;5025501;28;20485;-77
2023/05/17 10:28:59;;;;;;;4.72;1.00;;;;;;;12.99;51.44;102665.16;5025687;28;20171;-78
2023/05/17 10:31:27;;;;;;;3.67;1.13;;;;;;;12.94;51.85;102663.44;5022648;28;20239;-77
2023/05/17 10:33:53;;;;;;;3.58;1.00;;;;;;;12.88;51.02;102667.81;5023922;28;20062;-78
2023/05/17 10:36:20;;;;;;;4.22;1.00;;;;;;;12.86;54.95;102661.75;5026771;28;20504;-77
2023/05/17 10:38:46;;;;;;;3.20;0.85;;;;;;;12.88;49.16;102657.38;5026127;28;20041;-77
2023/05/17 10:41:13;;;;;;;5.13;1.00;;;;;;;12.90;49.54;102653.00;5025931;28;20025;-77
2023/05/17 10:43:41;;;;;;;3.65;0.93;;;;;;;12.93;47.88;102646.88;5027864;28;20030;-78
2023/05/17 10:46:20;;;;;;;5.10;1.10;;;;;;;12.98;52.82;102646.88;5028289;28;20028;-77
2023/05/17 10:48:49;;;;;;;5.35;1.25;;;;;;;13.06;53.19;102645.06;5027547;28;20124;-77
2023/05/17 10:51:17;;;;;;;3.05;1.10;;;;;;;13.13;53.81;102641.53;5025855;28;20041;-78
2023/05/17 10:54:01;;;;;;;5.72;1.02;;;;;;;13.18;54.67;102644.97;5025064;28;20026;-77
2023/05/17 10:56:27;;;;;;;3.95;1.10;;;;;;;13.18;52.56;102646.72;5029281;28;20075;-81
2023/05/17 10:59:20;;;;;;;2.38;0.82;;;;;;;13.12;53.90;102645.03;5024181;28;20041;-77
2023/05/17 11:01:58;;;;;;;4.80;1.08;;;;;;;13.06;52.74;102637.22;5026344;28;20029;-78
2023/05/17 11:04:38;;;;;;;6.10;1.20;;;;;;;13.05;51.26;102644.22;5025401;28;20048;-77
2023/05/17 11:07:22;;;;;;;3.55;1.25;;;;;;;13.12;53.91;102633.69;5024086;28;20033;-77
2023/05/17 11:09:54;;;;;;;5.05;1.20;;;;;;;13.23;53.52;102631.00;5024219;28;20030;-77
2023/05/17 11:12:44;;;;;;;4.18;1.00;;;;;;;13.28;54.90;102629.22;5029178;28;20348;-77
2023/05/17 11:15:22;;;;;;;4.72;1.17;;;;;;;13.33;53.24;102632.66;5028484;28;20057;-77
2023/05/17 11:17:52;;;;;;;3.55;1.30;;;;;;;13.34;53.34;102629.16;5030124;28;20083;-77
2023/05/17 11:20:24;;;;;;;5.35;1.30;;;;;;;13.35;51.30;102636.13;5033402;28;20029;-77
2023/05/17 11:23:13;;;;;;;4.25;1.00;;;;;;;13.41;52.45;102633.50;5032399;28;20123;-77
2023/05/17 11:25:39;;;;;;;2.78;1.05;;;;;;;13.47;54.04;102629.97;5028422;28;20083;-77
2023/05/17 11:28:23;;;;;;;5.70;1.10;;;;;;;13.49;50.40;102628.19;5027076;28;20595;-77